sensor_id;sensor_type;location;lat;lon;timestamp;P1;durP1;ratioP1;P2;durP2;ratioP2
25922;SDS011;13725;51.170;4.442;2022-07-30T00:03:38;13.05;;;5.20;;
25922;SDS011;13725;51.170;4.442;2022-07-30T00:09:51;10.57;;;4.88;;
25922;SDS011;13725;51.170;4.442;2022-07-30T00:16:05;10.18;;;5.07;;
25922;SDS011;13725;51.170;4.442;2022-07-30T00:22:19;9.27;;;5.00;;
25922;SDS011;13725;51.170;4.442;2022-07-30T00:28:32;18.48;;;7.47;;
25922;SDS011;13725;51.170;4.442;2022-07-30T00:34:45;10.57;;;5.05;;
25922;SDS011;13725;51.170;4.442;2022-07-30T00:40:58;10.90;;;5.03;;
25922;SDS011;13725;51.170;4.442;2022-07-30T00:47:11;13.35;;;6.40;;
25922;SDS011;13725;51.170;4.442;2022-07-30T00:53:24;10.95;;;5.82;;
25922;SDS011;13725;51.170;4.442;2022-07-30T00:59:37;12.70;;;6.47;;
25922;SDS011;13725;51.170;4.442;2022-07-30T01:05:51;12.82;;;7.30;;
25922;SDS011;13725;51.170;4.442;2022-07-30T01:12:05;14.52;;;7.40;;
25922;SDS011;13725;51.170;4.442;2022-07-30T01:18:21;13.55;;;7.07;;
25922;SDS011;13725;51.170;4.442;2022-07-30T01:28:44;10.73;;;7.97;;
25922;SDS011;13725;51.170;4.442;2022-07-30T01:35:01;12.23;;;7.00;;
25922;SDS011;13725;51.170;4.442;2022-07-30T01:41:17;17.23;;;8.18;;
25922;SDS011;13725;51.170;4.442;2022-07-30T01:47:35;14.30;;;7.47;;
25922;SDS011;13725;51.170;4.442;2022-07-30T01:53:50;13.10;;;7.00;;
25922;SDS011;13725;51.170;4.442;2022-07-30T02:00:22;12.43;;;7.90;;
25922;SDS011;13725;51.170;4.442;2022-07-30T02:06:43;18.60;;;8.57;;
25922;SDS011;13725;51.170;4.442;2022-07-30T02:13:03;13.68;;;7.95;;
25922;SDS011;13725;51.170;4.442;2022-07-30T02:19:19;14.55;;;8.65;;
25922;SDS011;13725;51.170;4.442;2022-07-30T02:25:37;19.17;;;9.85;;
25922;SDS011;13725;51.170;4.442;2022-07-30T02:31:56;16.33;;;10.50;;
25922;SDS011;13725;51.170;4.442;2022-07-30T02:38:11;20.20;;;12.18;;
25922;SDS011;13725;51.170;4.442;2022-07-30T02:44:27;22.60;;;12.77;;
25922;SDS011;13725;51.170;4.442;2022-07-30T02:54:29;18.33;;;12.55;;
25922;SDS011;13725;51.170;4.442;2022-07-30T03:00:45;26.98;;;14.05;;
25922;SDS011;13725;51.170;4.442;2022-07-30T03:06:59;23.77;;;13.45;;
25922;SDS011;13725;51.170;4.442;2022-07-30T03:13:13;20.50;;;13.30;;
25922;SDS011;13725;51.170;4.442;2022-07-30T03:19:29;24.08;;;13.65;;
25922;SDS011;13725;51.170;4.442;2022-07-30T03:29:36;22.27;;;13.02;;
25922;SDS011;13725;51.170;4.442;2022-07-30T03:35:51;23.45;;;13.60;;
25922;SDS011;13725;51.170;4.442;2022-07-30T03:42:06;18.13;;;12.98;;
25922;SDS011;13725;51.170;4.442;2022-07-30T03:48:21;22.52;;;13.80;;
25922;SDS011;13725;51.170;4.442;2022-07-30T03:54:48;20.73;;;14.13;;
25922;SDS011;13725;51.170;4.442;2022-07-30T04:01:24;23.13;;;14.40;;
25922;SDS011;13725;51.170;4.442;2022-07-30T04:07:41;20.02;;;12.60;;
25922;SDS011;13725;51.170;4.442;2022-07-30T04:13:55;20.75;;;13.18;;
25922;SDS011;13725;51.170;4.442;2022-07-30T04:20:21;21.08;;;13.85;;
25922;SDS011;13725;51.170;4.442;2022-07-30T04:30:26;22.52;;;13.15;;
25922;SDS011;13725;51.170;4.442;2022-07-30T04:36:41;20.98;;;12.80;;
25922;SDS011;13725;51.170;4.442;2022-07-30T04:42:55;20.23;;;11.65;;
25922;SDS011;13725;51.170;4.442;2022-07-30T04:49:10;19.20;;;11.90;;
25922;SDS011;13725;51.170;4.442;2022-07-30T04:55:27;19.10;;;12.38;;
25922;SDS011;13725;51.170;4.442;2022-07-30T05:01:42;19.50;;;11.55;;
25922;SDS011;13725;51.170;4.442;2022-07-30T05:08:01;14.27;;;10.73;;
25922;SDS011;13725;51.170;4.442;2022-07-30T05:14:15;18.23;;;10.73;;
25922;SDS011;13725;51.170;4.442;2022-07-30T05:24:16;17.58;;;9.80;;
25922;SDS011;13725;51.170;4.442;2022-07-30T05:30:39;16.48;;;9.65;;
25922;SDS011;13725;51.170;4.442;2022-07-30T05:37:18;12.45;;;8.80;;
25922;SDS011;13725;51.170;4.442;2022-07-30T05:43:32;13.15;;;7.70;;
25922;SDS011;13725;51.170;4.442;2022-07-30T05:49:45;15.35;;;7.70;;
25922;SDS011;13725;51.170;4.442;2022-07-30T05:55:59;13.48;;;6.55;;
25922;SDS011;13725;51.170;4.442;2022-07-30T06:02:31;14.23;;;8.32;;
25922;SDS011;13725;51.170;4.442;2022-07-30T06:09:11;17.02;;;7.88;;
25922;SDS011;13725;51.170;4.442;2022-07-30T06:15:26;9.10;;;5.15;;
25922;SDS011;13725;51.170;4.442;2022-07-30T06:21:40;10.10;;;3.72;;
25922;SDS011;13725;51.170;4.442;2022-07-30T06:27:58;9.93;;;4.13;;
25922;SDS011;13725;51.170;4.442;2022-07-30T06:34:21;7.30;;;2.90;;
25922;SDS011;13725;51.170;4.442;2022-07-30T06:44:22;6.93;;;3.22;;
25922;SDS011;13725;51.170;4.442;2022-07-30T06:50:59;7.72;;;3.85;;
25922;SDS011;13725;51.170;4.442;2022-07-30T06:57:14;8.05;;;3.17;;
25922;SDS011;13725;51.170;4.442;2022-07-30T07:03:28;6.57;;;3.65;;
25922;SDS011;13725;51.170;4.442;2022-07-30T07:09:42;5.30;;;2.78;;
25922;SDS011;13725;51.170;4.442;2022-07-30T07:16:15;7.70;;;2.97;;
25922;SDS011;13725;51.170;4.442;2022-07-30T07:22:35;7.45;;;3.28;;
25922;SDS011;13725;51.170;4.442;2022-07-30T07:32:36;7.60;;;2.75;;
25922;SDS011;13725;51.170;4.442;2022-07-30T07:38:50;4.93;;;2.80;;
25922;SDS011;13725;51.170;4.442;2022-07-30T07:45:04;10.18;;;2.88;;
25922;SDS011;13725;51.170;4.442;2022-07-30T07:51:05;8.65;;;3.13;;
25922;SDS011;13725;51.170;4.442;2022-07-30T07:57:19;4.50;;;2.75;;
25922;SDS011;13725;51.170;4.442;2022-07-30T08:03:33;4.20;;;2.13;;
25922;SDS011;13725;51.170;4.442;2022-07-30T08:09:59;5.28;;;2.45;;
25922;SDS011;13725;51.170;4.442;2022-07-30T08:16:38;6.00;;;2.30;;
25922;SDS011;13725;51.170;4.442;2022-07-30T08:22:54;4.82;;;2.40;;
25922;SDS011;13725;51.170;4.442;2022-07-30T08:32:59;6.53;;;2.40;;
25922;SDS011;13725;51.170;4.442;2022-07-30T08:39:13;4.60;;;2.08;;
25922;SDS011;13725;51.170;4.442;2022-07-30T08:45:28;6.22;;;2.22;;
25922;SDS011;13725;51.170;4.442;2022-07-30T08:51:49;5.63;;;2.28;;
25922;SDS011;13725;51.170;4.442;2022-07-30T08:58:25;5.18;;;2.30;;
25922;SDS011;13725;51.170;4.442;2022-07-30T09:04:43;4.53;;;1.90;;
25922;SDS011;13725;51.170;4.442;2022-07-30T09:10:58;3.85;;;1.80;;
25922;SDS011;13725;51.170;4.442;2022-07-30T09:17:12;3.22;;;1.58;;
25922;SDS011;13725;51.170;4.442;2022-07-30T09:23:27;4.57;;;1.92;;
25922;SDS011;13725;51.170;4.442;2022-07-30T09:29:59;3.75;;;1.50;;
25922;SDS011;13725;51.170;4.442;2022-07-30T09:36:37;3.92;;;1.60;;
25922;SDS011;13725;51.170;4.442;2022-07-30T09:43:13;3.50;;;1.48;;
25922;SDS011;13725;51.170;4.442;2022-07-30T09:49:28;5.40;;;1.67;;
25922;SDS011;13725;51.170;4.442;2022-07-30T09:55:43;3.30;;;1.27;;
25922;SDS011;13725;51.170;4.442;2022-07-30T10:01:58;3.33;;;1.38;;
25922;SDS011;13725;51.170;4.442;2022-07-30T10:19:14;4.28;;;1.55;;
25922;SDS011;13725;51.170;4.442;2022-07-30T10:25:54;4.70;;;1.55;;
25922;SDS011;13725;51.170;4.442;2022-07-30T10:36:09;3.55;;;1.27;;
25922;SDS011;13725;51.170;4.442;2022-07-30T10:48:46;5.60;;;1.70;;
25922;SDS011;13725;51.170;4.442;2022-07-30T10:55:00;3.05;;;1.63;;
25922;SDS011;13725;51.170;4.442;2022-07-30T11:01:13;3.85;;;1.40;;
25922;SDS011;13725;51.170;4.442;2022-07-30T11:07:27;5.82;;;1.20;;
25922;SDS011;13725;51.170;4.442;2022-07-30T11:47:49;3.17;;;1.40;;
25922;SDS011;13725;51.170;4.442;2022-07-30T11:54:03;8.65;;;1.25;;
25922;SDS011;13725;51.170;4.442;2022-07-30T12:00:19;2.75;;;1.10;;
25922;SDS011;13725;51.170;4.442;2022-07-30T12:06:46;3.38;;;1.02;;
25922;SDS011;13725;51.170;4.442;2022-07-30T12:13:11;1.73;;;0.88;;
25922;SDS011;13725;51.170;4.442;2022-07-30T12:19:25;3.00;;;1.08;;
25922;SDS011;13725;51.170;4.442;2022-07-30T12:25:40;4.43;;;0.93;;
25922;SDS011;13725;51.170;4.442;2022-07-30T12:31:54;5.43;;;1.00;;
25922;SDS011;13725;51.170;4.442;2022-07-30T12:38:07;1.90;;;0.80;;
25922;SDS011;13725;51.170;4.442;2022-07-30T12:55:04;3.10;;;1.30;;
25922;SDS011;13725;51.170;4.442;2022-07-30T13:05:09;4.95;;;1.17;;
25922;SDS011;13725;51.170;4.442;2022-07-30T13:11:36;5.15;;;1.30;;
25922;SDS011;13725;51.170;4.442;2022-07-30T13:17:51;3.33;;;1.30;;
25922;SDS011;13725;51.170;4.442;2022-07-30T13:24:05;1.40;;;1.00;;
25922;SDS011;13725;51.170;4.442;2022-07-30T13:30:19;4.40;;;1.10;;
25922;SDS011;13725;51.170;4.442;2022-07-30T13:36:33;1.75;;;1.05;;
25922;SDS011;13725;51.170;4.442;2022-07-30T13:42:45;4.47;;;1.15;;
25922;SDS011;13725;51.170;4.442;2022-07-30T13:48:59;6.30;;;2.08;;
25922;SDS011;13725;51.170;4.442;2022-07-30T13:55:12;4.47;;;1.50;;
25922;SDS011;13725;51.170;4.442;2022-07-30T14:01:25;2.70;;;1.17;;
25922;SDS011;13725;51.170;4.442;2022-07-30T14:07:39;2.40;;;1.50;;
25922;SDS011;13725;51.170;4.442;2022-07-30T14:13:53;4.80;;;1.17;;
25922;SDS011;13725;51.170;4.442;2022-07-30T14:20:07;1.90;;;1.15;;
25922;SDS011;13725;51.170;4.442;2022-07-30T14:37:06;2.88;;;1.50;;
25922;SDS011;13725;51.170;4.442;2022-07-30T14:43:20;3.40;;;1.15;;
25922;SDS011;13725;51.170;4.442;2022-07-30T14:49:34;4.82;;;1.60;;
25922;SDS011;13725;51.170;4.442;2022-07-30T14:55:48;2.50;;;1.30;;
25922;SDS011;13725;51.170;4.442;2022-07-30T15:02:01;6.15;;;3.58;;
25922;SDS011;13725;51.170;4.442;2022-07-30T15:08:15;4.30;;;2.20;;
25922;SDS011;13725;51.170;4.442;2022-07-30T15:14:29;4.32;;;2.05;;
25922;SDS011;13725;51.170;4.442;2022-07-30T15:20:42;3.53;;;1.95;;
25922;SDS011;13725;51.170;4.442;2022-07-30T15:26:57;5.55;;;1.60;;
25922;SDS011;13725;51.170;4.442;2022-07-30T15:33:11;2.65;;;1.50;;
25922;SDS011;13725;51.170;4.442;2022-07-30T15:39:25;5.43;;;1.60;;
25922;SDS011;13725;51.170;4.442;2022-07-30T15:45:41;3.08;;;1.70;;
25922;SDS011;13725;51.170;4.442;2022-07-30T15:51:56;2.47;;;1.35;;
25922;SDS011;13725;51.170;4.442;2022-07-30T15:58:11;6.25;;;1.50;;
25922;SDS011;13725;51.170;4.442;2022-07-30T16:04:25;6.28;;;1.30;;
25922;SDS011;13725;51.170;4.442;2022-07-30T16:10:39;1.65;;;0.80;;
25922;SDS011;13725;51.170;4.442;2022-07-30T16:16:53;1.83;;;1.08;;
25922;SDS011;13725;51.170;4.442;2022-07-30T16:23:06;1.25;;;1.05;;
25922;SDS011;13725;51.170;4.442;2022-07-30T16:29:20;2.35;;;1.00;;
25922;SDS011;13725;51.170;4.442;2022-07-30T16:35:44;3.58;;;1.00;;
25922;SDS011;13725;51.170;4.442;2022-07-30T16:41:58;2.78;;;1.00;;
25922;SDS011;13725;51.170;4.442;2022-07-30T16:48:12;2.85;;;1.25;;
25922;SDS011;13725;51.170;4.442;2022-07-30T16:54:26;6.70;;;1.23;;
25922;SDS011;13725;51.170;4.442;2022-07-30T17:00:38;1.65;;;0.93;;
25922;SDS011;13725;51.170;4.442;2022-07-30T17:06:55;3.33;;;1.23;;
25922;SDS011;13725;51.170;4.442;2022-07-30T17:13:08;1.48;;;1.13;;
25922;SDS011;13725;51.170;4.442;2022-07-30T17:19:21;1.83;;;1.10;;
25922;SDS011;13725;51.170;4.442;2022-07-30T17:25:35;1.95;;;1.20;;
25922;SDS011;13725;51.170;4.442;2022-07-30T17:35:35;3.33;;;1.30;;
25922;SDS011;13725;51.170;4.442;2022-07-30T17:41:49;2.55;;;1.17;;
25922;SDS011;13725;51.170;4.442;2022-07-30T17:48:02;2.33;;;1.00;;
25922;SDS011;13725;51.170;4.442;2022-07-30T17:54:17;2.17;;;1.30;;
25922;SDS011;13725;51.170;4.442;2022-07-30T18:00:30;2.50;;;1.40;;
25922;SDS011;13725;51.170;4.442;2022-07-30T18:06:46;1.85;;;1.40;;
25922;SDS011;13725;51.170;4.442;2022-07-30T18:13:01;3.17;;;1.20;;
25922;SDS011;13725;51.170;4.442;2022-07-30T18:19:15;1.88;;;1.00;;
25922;SDS011;13725;51.170;4.442;2022-07-30T18:25:28;3.85;;;1.60;;
25922;SDS011;13725;51.170;4.442;2022-07-30T18:35:41;2.25;;;1.27;;
25922;SDS011;13725;51.170;4.442;2022-07-30T18:41:56;3.75;;;1.10;;
25922;SDS011;13725;51.170;4.442;2022-07-30T18:48:10;5.43;;;1.10;;
25922;SDS011;13725;51.170;4.442;2022-07-30T18:54:23;5.22;;;1.50;;
25922;SDS011;13725;51.170;4.442;2022-07-30T19:00:36;3.17;;;1.48;;
25922;SDS011;13725;51.170;4.442;2022-07-30T19:06:51;6.05;;;1.33;;
25922;SDS011;13725;51.170;4.442;2022-07-30T19:13:05;2.22;;;1.48;;
25922;SDS011;13725;51.170;4.442;2022-07-30T19:19:19;2.00;;;1.30;;
25922;SDS011;13725;51.170;4.442;2022-07-30T19:25:33;4.15;;;1.38;;
25922;SDS011;13725;51.170;4.442;2022-07-30T19:35:36;3.35;;;1.65;;
25922;SDS011;13725;51.170;4.442;2022-07-30T19:41:51;5.05;;;1.35;;
25922;SDS011;13725;51.170;4.442;2022-07-30T19:48:04;4.28;;;1.73;;
25922;SDS011;13725;51.170;4.442;2022-07-30T19:54:18;6.68;;;2.22;;
25922;SDS011;13725;51.170;4.442;2022-07-30T20:00:31;5.85;;;1.65;;
25922;SDS011;13725;51.170;4.442;2022-07-30T20:06:45;4.65;;;2.00;;
25922;SDS011;13725;51.170;4.442;2022-07-30T20:13:03;3.45;;;1.67;;
25922;SDS011;13725;51.170;4.442;2022-07-30T20:19:16;4.63;;;1.90;;
25922;SDS011;13725;51.170;4.442;2022-07-30T20:25:31;6.88;;;1.52;;
25922;SDS011;13725;51.170;4.442;2022-07-30T20:35:33;6.00;;;1.85;;
25922;SDS011;13725;51.170;4.442;2022-07-30T20:41:47;7.15;;;1.88;;
25922;SDS011;13725;51.170;4.442;2022-07-30T20:48:01;3.63;;;1.90;;
25922;SDS011;13725;51.170;4.442;2022-07-30T20:54:14;5.97;;;2.00;;
25922;SDS011;13725;51.170;4.442;2022-07-30T21:00:28;3.97;;;1.65;;
25922;SDS011;13725;51.170;4.442;2022-07-30T21:06:41;4.68;;;1.90;;
25922;SDS011;13725;51.170;4.442;2022-07-30T21:12:59;3.17;;;1.73;;
25922;SDS011;13725;51.170;4.442;2022-07-30T21:19:12;3.05;;;1.73;;
25922;SDS011;13725;51.170;4.442;2022-07-30T21:25:29;6.03;;;2.03;;
25922;SDS011;13725;51.170;4.442;2022-07-30T21:35:29;5.00;;;2.55;;
25922;SDS011;13725;51.170;4.442;2022-07-30T21:41:43;5.00;;;2.05;;
25922;SDS011;13725;51.170;4.442;2022-07-30T21:47:57;5.07;;;1.88;;
25922;SDS011;13725;51.170;4.442;2022-07-30T21:54:11;8.93;;;2.10;;
25922;SDS011;13725;51.170;4.442;2022-07-30T22:07:13;3.97;;;2.38;;
25922;SDS011;13725;51.170;4.442;2022-07-30T22:17:31;8.20;;;2.20;;
25922;SDS011;13725;51.170;4.442;2022-07-30T22:23:46;5.22;;;2.42;;
25922;SDS011;13725;51.170;4.442;2022-07-30T22:30:01;6.22;;;2.25;;
25922;SDS011;13725;51.170;4.442;2022-07-30T22:36:15;4.85;;;2.40;;
25922;SDS011;13725;51.170;4.442;2022-07-30T22:42:28;4.43;;;2.15;;
25922;SDS011;13725;51.170;4.442;2022-07-30T22:48:42;3.08;;;2.17;;
25922;SDS011;13725;51.170;4.442;2022-07-30T22:54:56;3.83;;;2.10;;
25922;SDS011;13725;51.170;4.442;2022-07-30T23:01:10;7.82;;;2.88;;
25922;SDS011;13725;51.170;4.442;2022-07-30T23:07:23;4.85;;;1.90;;
25922;SDS011;13725;51.170;4.442;2022-07-30T23:13:37;8.18;;;2.33;;
25922;SDS011;13725;51.170;4.442;2022-07-30T23:19:51;4.78;;;2.50;;
25922;SDS011;13725;51.170;4.442;2022-07-30T23:26:05;6.30;;;2.40;;
25922;SDS011;13725;51.170;4.442;2022-07-30T23:32:20;7.57;;;2.60;;
25922;SDS011;13725;51.170;4.442;2022-07-30T23:38:34;5.03;;;2.20;;
25922;SDS011;13725;51.170;4.442;2022-07-30T23:44:48;4.72;;;2.40;;
25922;SDS011;13725;51.170;4.442;2022-07-30T23:51:02;7.97;;;3.35;;
25922;SDS011;13725;51.170;4.442;2022-07-30T23:57:16;6.15;;;3.47;;
